Lusby, Maryland
Current Conditions -  °F | °C
As of 12:06 AM on Tuesday 21 Oct 2014 (Local Time) from K2W6 Reporting Station
Scattered Clouds Scattered Clouds  
Wind Chill: 54°   Ceiling: Unl
Heat Index: 54°   Visibility: 10mi
Dew Point: 43°   Wind: 0mph
Humidity: 67%   Direction: NA
Pressure: 29.96"   Gusts: NA
Location:  38.43°N, 76.47°W
Report Text: K2W6 210406Z AUTO 00000KT 10SM SCT110 12/06 A2996 RMK AO1
Loading
Personal Weather Stations






























Interactive Weather Map
Tropical Storm Tracking
New forecast layout! Learn more

10-Day Weather Forecast

Advertisements
Track Severe Weather on mobile